San Diego/Miramar MCAS, California
Current Conditions -  °F | °C
As of 8:55 AM on Wednesday 26 Nov 2014 (Local Time) from KNKX Reporting Station
Clear Clear  
Wind Chill: 75°   Ceiling: Unl
Heat Index: 75°   Visibility: 10mi
Dew Point: 18°   Wind: 0mph
Humidity: 12%   Direction: NA
Pressure: 30.23"   Gusts: NA
Location:  32.85°N, 117.12°W
Report Text: KNKX 261655Z 00000KT 10SM CLR 24/M08 A3023 RMK AO2 SLP231 T02391078
Loading
Personal Weather Stations






























Interactive Weather Map New forecast layout! Learn more

10-Day Weather Forecast

Advertisements
Track Severe Weather on mobile